Time;durP1;ratioP1;P1;durP2;ratioP2;P2;SDS_P1;SDS_P2;PMS_P1;PMS_P2;Temp;Humidity;BMP_temperature;BMP_pressure;BME280_temperature;BME280_humidity;BME280_pressure;Samples;Min_cycle;Max_cycle;Signal;HPM_P1;HPM_P2
2023/04/01 00:00:00;;;;;;;4.35;3.40;;;16.80;99.90;;;;;;5038815;28;20033;-51
2023/04/01 00:02:26;;;;;;;4.35;2.33;;;16.80;99.90;;;;;;5024293;28;20496;-52
2023/04/01 00:04:52;;;;;;;3.08;2.55;;;16.80;99.90;;;;;;5029272;28;20033;-50
2023/04/01 00:07:17;;;;;;;1.42;0.98;;;16.70;99.90;;;;;;5044957;28;20045;-52
2023/04/01 00:09:43;;;;;;;1.65;1.20;;;16.70;99.90;;;;;;5021812;28;20496;-54
2023/04/01 00:12:09;;;;;;;2.53;1.83;;;16.70;99.90;;;;;;5030064;28;20087;-52
2023/04/01 00:14:36;;;;;;;2.67;2.33;;;16.80;99.90;;;;;;5041265;28;20120;-49
2023/04/01 00:17:02;;;;;;;1.48;1.15;;;16.70;99.90;;;;;;5030025;28;20033;-53
2023/04/01 00:19:28;;;;;;;2.33;1.67;;;16.60;99.90;;;;;;5049989;28;20050;-53
2023/04/01 00:21:54;;;;;;;3.05;1.08;;;16.40;99.90;;;;;;5026769;28;20052;-52
2023/04/01 00:24:20;;;;;;;1.50;1.15;;;16.40;99.90;;;;;;5043555;28;20114;-50
2023/04/01 00:26:47;;;;;;;1.23;1.05;;;16.40;99.90;;;;;;5026562;28;20032;-50
2023/04/01 00:29:13;;;;;;;2.75;0.75;;;16.20;99.90;;;;;;5028466;28;20057;-55
2023/04/01 00:31:38;;;;;;;1.10;0.73;;;16.20;99.90;;;;;;5029076;28;20457;-47
2023/04/01 00:34:04;;;;;;;1.58;1.10;;;16.00;99.90;;;;;;5026765;28;20169;-47
2023/04/01 00:36:30;;;;;;;0.85;0.80;;;15.90;99.90;;;;;;5029587;28;20075;-50
2023/04/01 00:38:58;;;;;;;0.82;0.82;;;;;;;;;;5025760;28;20034;-49
2023/04/01 00:41:25;;;;;;;1.20;1.00;;;15.80;99.90;;;;;;5017731;28;20030;-55
2023/04/01 00:43:52;;;;;;;1.13;1.02;;;15.70;99.90;;;;;;5028527;28;20064;-46
2023/04/01 00:46:18;;;;;;;1.23;1.13;;;15.60;99.90;;;;;;5021390;28;20108;-55
2023/04/01 00:48:51;;;;;;;0.63;0.63;;;15.50;99.90;;;;;;5026423;28;20107;-48
2023/04/01 00:51:21;;;;;;;1.00;0.68;;;15.20;99.90;;;;;;5027353;28;20024;-54
2023/04/01 00:53:50;;;;;;;1.13;0.88;;;15.20;99.90;;;;;;5026181;28;20033;-53
2023/04/01 00:56:22;;;;;;;0.90;0.75;;;15.30;99.90;;;;;;5016879;28;20068;-52
2023/04/01 00:58:57;;;;;;;0.75;0.75;;;15.30;99.90;;;;;;5026162;28;20034;-50
2023/04/01 01:01:24;;;;;;;0.55;0.47;;;15.30;99.90;;;;;;5021048;28;20040;-49
2023/04/01 01:03:50;;;;;;;1.95;0.93;;;15.30;99.90;;;;;;5026114;28;20108;-50
2023/04/01 01:06:30;;;;;;;0.60;0.60;;;15.40;99.90;;;;;;5023584;28;20137;-53
2023/04/01 01:08:59;;;;;;;1.92;1.25;;;15.50;99.90;;;;;;5025078;28;20026;-48
2023/04/01 01:11:41;;;;;;;2.17;1.52;;;15.50;99.90;;;;;;5029566;28;20087;-49
2023/04/01 01:14:06;;;;;;;;;;;15.50;99.90;;;;;;5028189;28;20033;-54
2023/04/01 01:16:40;;;;;;;1.60;1.10;;;15.50;99.90;;;;;;5044721;28;19905;-52
2023/04/01 01:19:35;;;;;;;0.80;0.65;;;15.50;99.90;;;;;;5008172;28;20033;-54
2023/04/01 01:22:32;;;;;;;1.85;1.20;;;15.70;99.90;;;;;;5023422;28;20040;-52
2023/04/01 01:25:23;;;;;;;0.32;0.32;;;15.80;99.90;;;;;;5019918;28;20038;-55
2023/04/01 01:28:07;;;;;;;0.40;0.40;;;15.80;99.90;;;;;;5027090;28;20037;-49
2023/04/01 01:30:43;;;;;;;0.52;0.52;;;15.90;99.90;;;;;;5028960;28;20025;-54
2023/04/01 01:33:42;;;;;;;0.45;0.45;;;15.70;99.90;;;;;;5026577;28;20041;-52
2023/04/01 01:36:12;;;;;;;1.20;1.10;;;15.50;99.90;;;;;;4918788;29;20131;-50
2023/04/01 01:38:39;;;;;;;1.98;1.75;;;15.50;99.90;;;;;;4921933;29;20036;-45
2023/04/01 01:41:08;;;;;;;2.65;1.85;;;15.30;99.90;;;;;;4920716;29;20107;-50
2023/04/01 01:43:39;;;;;;;1.98;1.20;;;15.30;99.90;;;;;;4919565;29;20039;-52
2023/04/01 01:46:13;;;;;;;1.85;1.35;;;15.30;99.90;;;;;;4919112;29;20032;-49
2023/04/01 01:48:41;;;;;;;1.02;0.93;;;15.50;99.90;;;;;;4920170;29;20039;-50
2023/04/01 01:51:07;;;;;;;1.00;0.73;;;15.60;99.90;;;;;;4920731;29;20119;-55
2023/04/01 01:53:33;;;;;;;1.60;1.25;;;15.70;99.90;;;;;;4918614;29;20054;-50
2023/04/01 01:55:59;;;;;;;1.20;0.77;;;15.60;99.90;;;;;;4920315;29;20408;-53
2023/04/01 01:58:40;;;;;;;2.45;1.42;;;15.60;99.90;;;;;;4919599;29;20047;-53
2023/04/01 02:01:08;;;;;;;0.65;0.65;;;15.60;99.90;;;;;;4920919;29;20080;-56
2023/04/01 02:03:37;;;;;;;0.60;0.47;;;15.50;99.90;;;;;;4920449;29;20064;-48
2023/04/01 02:06:07;;;;;;;0.55;0.50;;;15.40;99.90;;;;;;4919215;29;20122;-53
2023/04/01 02:08:37;;;;;;;1.13;0.65;;;14.70;99.90;;;;;;4907248;29;20385;-49
2023/04/01 02:11:06;;;;;;;4.05;0.30;;;14.50;99.90;;;;;;4919955;29;20215;-55
2023/04/01 02:13:50;;;;;;;0.60;0.60;;;14.30;99.90;;;;;;4991690;28;20041;-51
2023/04/01 02:16:24;;;;;;;0.50;0.50;;;14.10;99.90;;;;;;5020224;28;20036;-56
2023/04/01 02:18:54;;;;;;;146.30;131.65;;;14.00;99.90;;;;;;5027919;28;20028;-54
2023/04/01 02:21:22;;;;;;;0.90;0.40;;;14.00;99.90;;;;;;5028704;28;20029;-50
2023/04/01 02:23:50;;;;;;;0.63;0.63;;;14.10;99.90;;;;;;5009633;28;20156;-48
2023/04/01 02:26:16;;;;;;;0.60;0.50;;;14.20;99.90;;;;;;5009510;28;20057;-49
2023/04/01 02:28:46;;;;;;;0.73;0.73;;;14.10;99.90;;;;;;5009646;28;20042;-51
2023/04/01 02:31:14;;;;;;;0.65;0.40;;;14.00;99.90;;;;;;5009131;28;20101;-56
2023/04/01 02:33:40;;;;;;;0.68;0.68;;;13.80;99.90;;;;;;5006514;28;20140;-57
2023/04/01 02:36:12;;;;;;;0.20;0.20;;;13.70;99.90;;;;;;5005461;28;20030;-54
2023/04/01 02:38:38;;;;;;;0.63;0.60;;;13.60;99.90;;;;;;5007297;28;20209;-54
2023/04/01 02:41:05;;;;;;;0.30;0.30;;;13.50;99.90;;;;;;5011014;28;20105;-52
2023/04/01 02:43:30;;;;;;;0.28;0.28;;;13.50;99.90;;;;;;5005404;28;20049;-52
2023/04/01 02:45:56;;;;;;;0.22;0.22;;;13.50;99.90;;;;;;5008130;28;20469;-53
2023/04/01 02:48:22;;;;;;;0.40;0.40;;;13.50;99.90;;;;;;5000787;28;20034;-54
2023/04/01 02:50:48;;;;;;;0.47;0.32;;;13.70;99.90;;;;;;4986997;28;20046;-51
2023/04/01 02:53:13;;;;;;;0.10;0.10;;;13.70;99.90;;;;;;5007138;28;20093;-47
2023/04/01 02:55:39;;;;;;;0.20;0.20;;;13.80;99.90;;;;;;5043843;28;20437;-55
2023/04/01 02:58:05;;;;;;;0.40;0.40;;;14.00;99.90;;;;;;5030093;28;20045;-54
2023/04/01 03:00:31;;;;;;;0.43;0.43;;;14.20;99.90;;;;;;5029713;28;20052;-51
2023/04/01 03:02:57;;;;;;;0.20;0.20;;;14.40;99.90;;;;;;5024020;28;20053;-54
2023/04/01 03:05:23;;;;;;;2.47;0.63;;;14.40;99.90;;;;;;5016186;28;20044;-50
2023/04/01 03:07:49;;;;;;;0.45;0.45;;;14.30;99.90;;;;;;5027389;28;20259;-51
2023/04/01 03:10:14;;;;;;;0.30;0.30;;;14.10;99.90;;;;;;5021561;28;20433;-52
2023/04/01 03:12:40;;;;;;;0.20;0.20;;;13.90;99.90;;;;;;5028327;28;20066;-53
2023/04/01 03:15:09;;;;;;;0.35;0.35;;;14.10;99.90;;;;;;5022960;28;20037;-51
2023/04/01 03:17:35;;;;;;;0.20;0.20;;;14.20;99.90;;;;;;5012711;28;20073;-57
2023/04/01 03:20:00;;;;;;;0.15;0.15;;;14.20;99.90;;;;;;5029863;28;20522;-55
2023/04/01 03:22:26;;;;;;;0.98;0.52;;;14.30;99.90;;;;;;5026421;28;20031;-56
2023/04/01 03:24:52;;;;;;;0.38;0.38;;;14.30;99.90;;;;;;5027832;28;20044;-48
2023/04/01 03:27:18;;;;;;;10.32;7.22;;;14.40;99.90;;;;;;5031037;28;20064;-53
2023/04/01 03:29:43;;;;;;;0.68;0.60;;;14.40;99.90;;;;;;5030502;28;20448;-58
2023/04/01 03:32:09;;;;;;;0.82;0.82;;;14.20;99.90;;;;;;5026596;28;20029;-50
2023/04/01 03:34:35;;;;;;;0.30;0.30;;;14.30;99.90;;;;;;5028806;28;20026;-57
2023/04/01 03:37:01;;;;;;;0.30;0.30;;;14.30;99.90;;;;;;5022781;28;20067;-50
2023/04/01 03:39:26;;;;;;;0.52;0.45;;;14.40;99.90;;;;;;5025923;28;20098;-53
2023/04/01 03:41:52;;;;;;;0.38;0.25;;;14.50;99.90;;;;;;5027241;28;20178;-50
2023/04/01 03:44:18;;;;;;;0.45;0.45;;;14.50;99.90;;;;;;5043125;28;20053;-53
2023/04/01 03:46:44;;;;;;;0.10;0.10;;;14.20;99.90;;;;;;5027830;28;20188;-52
2023/04/01 03:49:13;;;;;;;0.10;0.10;;;14.30;99.90;;;;;;5027736;28;20030;-53
2023/04/01 03:51:41;;;;;;;243.80;219.60;;;14.30;99.90;;;;;;5014556;28;20399;-50
2023/04/01 03:54:07;;;;;;;0.20;0.20;;;14.40;99.90;;;;;;5025271;28;20022;-51
2023/04/01 03:56:33;;;;;;;0.38;0.38;;;14.40;99.90;;;;;;5024674;28;20030;-57
2023/04/01 03:59:03;;;;;;;0.65;0.65;;;14.40;99.90;;;;;;5023281;28;20025;-56
2023/04/01 04:01:29;;;;;;;0.35;0.35;;;14.30;99.90;;;;;;5042241;28;20042;-52
2023/04/01 04:03:56;;;;;;;0.13;0.13;;;14.10;99.90;;;;;;5024283;28;20029;-47
2023/04/01 04:06:22;;;;;;;0.40;0.40;;;14.20;99.90;;;;;;5024026;28;20444;-55
2023/04/01 04:08:48;;;;;;;0.10;0.10;;;13.90;99.90;;;;;;5027749;28;20029;-55
2023/04/01 04:11:14;;;;;;;0.10;0.10;;;13.60;99.90;;;;;;5023271;28;20481;-54
2023/04/01 04:13:40;;;;;;;0.20;0.20;;;13.70;99.90;;;;;;5024000;28;20037;-51
2023/04/01 04:16:07;;;;;;;3.35;1.83;;;13.90;99.90;;;;;;5044715;28;20034;-54
2023/04/01 04:18:33;;;;;;;2.60;1.55;;;13.90;99.90;;;;;;5024225;28;20026;-53
2023/04/01 04:20:58;;;;;;;0.40;0.40;;;14.00;99.90;;;;;;5028947;28;20496;-54
2023/04/01 04:23:24;;;;;;;0.75;0.68;;;13.90;99.90;;;;;;5019053;28;20145;-53
2023/04/01 04:26:02;;;;;;;0.60;0.60;;;14.10;99.90;;;;;;5029609;28;20073;-54
2023/04/01 04:28:28;;;;;;;1.08;0.93;;;14.10;99.90;;;;;;4999172;28;20033;-53
2023/04/01 04:30:55;;;;;;;0.20;0.20;;;14.10;99.90;;;;;;5043177;28;20080;-54
2023/04/01 04:33:22;;;;;;;0.17;0.17;;;13.80;99.90;;;;;;4999527;28;20045;-49
2023/04/01 04:35:48;;;;;;;0.45;0.45;;;13.80;99.90;;;;;;5041257;28;20116;-52
2023/04/01 04:38:14;;;;;;;0.25;0.25;;;13.70;99.90;;;;;;5012975;28;20041;-52
2023/04/01 04:40:41;;;;;;;0.10;0.10;;;13.90;99.90;;;;;;5041694;28;20027;-47
2023/04/01 04:43:09;;;;;;;0.10;0.10;;;13.90;99.90;;;;;;5041198;28;20072;-51
2023/04/01 04:45:35;;;;;;;0.65;0.47;;;14.00;99.90;;;;;;5016453;28;20159;-52
2023/04/01 04:48:01;;;;;;;0.10;0.10;;;13.90;99.90;;;;;;5041056;28;20120;-54
2023/04/01 04:50:26;;;;;;;0.20;0.20;;;13.90;99.90;;;;;;5039627;28;20099;-53
2023/04/01 04:52:52;;;;;;;1.25;0.20;;;13.70;99.90;;;;;;5044630;28;20040;-49
2023/04/01 04:55:18;;;;;;;0.57;0.30;;;13.70;99.90;;;;;;5010512;28;20045;-55
2023/04/01 04:57:44;;;;;;;0.40;0.40;;;13.50;99.90;;;;;;5044817;28;20210;-53
2023/04/01 05:00:11;;;;;;;0.20;0.20;;;13.30;99.90;;;;;;5027861;28;20037;-51
2023/04/01 05:02:37;;;;;;;0.17;0.17;;;;;;;;;;5000459;28;20405;-56
2023/04/01 05:05:04;;;;;;;0.60;0.40;;;13.00;99.90;;;;;;5029490;28;20382;-55
2023/04/01 05:07:30;;;;;;;0.30;0.30;;;13.20;99.90;;;;;;5052601;28;20053;-54
2023/04/01 05:09:55;;;;;;;1.13;0.45;;;13.10;99.90;;;;;;5029302;28;20440;-52
2023/04/01 05:12:21;;;;;;;0.52;0.50;;;13.00;99.90;;;;;;5025501;28;20103;-51
2023/04/01 05:14:47;;;;;;;0.55;0.30;;;;;;;;;;5018299;28;20056;-56
2023/04/01 05:17:13;;;;;;;0.90;0.90;;;;;;;;;;5025385;28;20170;-57
2023/04/01 05:19:39;;;;;;;0.55;0.55;;;;;;;;;;5024944;28;20030;-55
2023/04/01 05:22:06;;;;;;;0.40;0.40;;;12.90;99.90;;;;;;5044175;28;20042;-51
2023/04/01 05:24:33;;;;;;;0.43;0.20;;;;;;;;;;5018672;28;20045;-54
2023/04/01 05:26:59;;;;;;;2.13;0.50;;;;;;;;;;5009806;28;20038;-57
2023/04/01 05:29:26;;;;;;;1.30;0.85;;;;;;;;;;5026927;28;20163;-53
2023/04/01 05:31:52;;;;;;;0.43;0.43;;;;;;;;;;5025052;28;20477;-49
2023/04/01 05:34:18;;;;;;;1.33;0.68;;;12.80;99.90;;;;;;5024216;28;20025;-55
2023/04/01 05:36:44;;;;;;;0.47;0.47;;;12.80;99.90;;;;;;5021213;28;20355;-48
2023/04/01 05:39:10;;;;;;;0.38;0.38;;;12.90;99.90;;;;;;5019438;28;20061;-48
2023/04/01 05:41:36;;;;;;;3.03;0.47;;;13.20;99.90;;;;;;5022323;28;20033;-47
2023/04/01 05:44:02;;;;;;;0.52;0.52;;;13.30;99.90;;;;;;5026641;28;20033;-54
2023/04/01 05:46:28;;;;;;;1.52;1.00;;;13.20;99.90;;;;;;5017716;28;20392;-53
2023/04/01 05:48:54;;;;;;;1.02;0.40;;;13.30;99.90;;;;;;5017688;28;20038;-50
2023/04/01 05:51:20;;;;;;;0.90;0.77;;;13.20;99.90;;;;;;5024953;28;20055;-53
2023/04/01 05:53:46;;;;;;;0.20;0.20;;;13.30;99.90;;;;;;5028910;28;20053;-58
2023/04/01 05:56:12;;;;;;;1.35;0.47;;;13.10;99.90;;;;;;5003630;28;20037;-51
2023/04/01 05:58:38;;;;;;;0.57;0.50;;;13.00;99.90;;;;;;5024305;28;20021;-53
2023/04/01 06:01:07;;;;;;;1.27;1.02;;;12.90;99.90;;;;;;5030068;28;20508;-52
2023/04/01 06:03:33;;;;;;;0.60;0.60;;;12.90;99.90;;;;;;5029537;28;20040;-53
2023/04/01 06:06:00;;;;;;;0.68;0.60;;;12.80;99.90;;;;;;5019916;28;20389;-52
2023/04/01 06:08:28;;;;;;;0.50;0.50;;;12.80;99.90;;;;;;5027589;28;20037;-54
2023/04/01 06:11:05;;;;;;;0.13;0.13;;;12.80;99.90;;;;;;5019505;28;20397;-53
2023/04/01 06:13:39;;;;;;;0.57;0.57;;;12.80;99.90;;;;;;5016878;28;20124;-54
2023/04/01 06:16:25;;;;;;;0.40;0.40;;;12.60;99.90;;;;;;5021811;28;20034;-53
2023/04/01 06:19:15;;;;;;;0.30;0.20;;;;;;;;;;5022660;28;20037;-49
2023/04/01 06:22:15;;;;;;;0.30;0.30;;;12.60;99.90;;;;;;5047979;28;20060;-53
2023/04/01 06:24:57;;;;;;;0.45;0.45;;;12.70;99.90;;;;;;5035493;28;20053;-51
2023/04/01 06:28:13;;;;;;;0.20;0.20;;;12.70;99.90;;;;;;5034166;28;20044;-51
2023/04/01 06:31:01;;;;;;;0.20;0.20;;;12.70;99.90;;;;;;4988732;28;20486;-55
2023/04/01 06:33:35;;;;;;;0.25;0.25;;;12.80;99.90;;;;;;4983762;28;20138;-58
2023/04/01 06:36:19;;;;;;;0.10;0.10;;;12.70;99.90;;;;;;4972774;28;20035;-56
2023/04/01 06:39:12;;;;;;;0.20;0.20;;;12.60;99.90;;;;;;4981246;28;20511;-62
2023/04/01 06:42:03;;;;;;;0.32;0.32;;;12.70;99.90;;;;;;4985337;28;20487;-56
2023/04/01 06:44:28;;;;;;;1.85;0.30;;;12.50;99.90;;;;;;4909561;29;20099;-60
2023/04/01 06:47:01;;;;;;;0.17;0.17;;;12.50;99.90;;;;;;4912836;29;20502;-51
2023/04/01 06:50:02;;;;;;;0.68;0.47;;;12.50;99.90;;;;;;4908582;29;20103;-56
2023/04/01 06:52:36;;;;;;;0.40;0.40;;;12.50;99.90;;;;;;4908515;29;20052;-56
2023/04/01 06:55:13;;;;;;;0.10;0.10;;;;;;;;;;4912604;29;20036;-54
2023/04/01 06:57:43;;;;;;;0.47;0.47;;;;;;;;;;4926854;29;20074;-60
2023/04/01 07:00:26;;;;;;;0.20;0.20;;;12.50;99.90;;;;;;4916639;29;20040;-58
2023/04/01 07:03:05;;;;;;;0.10;0.10;;;12.60;99.90;;;;;;4925737;29;20052;-53
2023/04/01 07:05:33;;;;;;;0.30;0.30;;;12.40;99.90;;;;;;4922058;29;20054;-58
2023/04/01 07:08:04;;;;;;;0.63;0.63;;;12.50;99.90;;;;;;4941477;29;20093;-55
2023/04/01 07:10:52;;;;;;;0.20;0.20;;;12.50;99.90;;;;;;4937901;29;20035;-54
2023/04/01 07:13:29;;;;;;;0.15;0.15;;;12.50;99.90;;;;;;4937151;29;20131;-58
2023/04/01 07:16:19;;;;;;;0.63;0.52;;;12.60;99.90;;;;;;4937176;29;20066;-52
2023/04/01 07:18:54;;;;;;;0.30;0.30;;;12.70;99.90;;;;;;4936744;29;20042;-60
2023/04/01 07:21:26;;;;;;;0.30;0.30;;;12.50;99.90;;;;;;5011166;28;20049;-55
2023/04/01 07:23:56;;;;;;;0.40;0.40;;;12.60;99.90;;;;;;5022415;28;20045;-57
2023/04/01 07:26:23;;;;;;;0.30;0.30;;;12.60;99.90;;;;;;5026140;28;20030;-51
2023/04/01 07:28:52;;;;;;;0.20;0.20;;;12.60;99.90;;;;;;5033145;28;20026;-53
2023/04/01 07:31:24;;;;;;;0.25;0.25;;;12.80;99.90;;;;;;5020545;28;20149;-53
2023/04/01 07:34:01;;;;;;;0.40;0.40;;;12.90;99.90;;;;;;5020354;28;20473;-53
2023/04/01 07:36:44;;;;;;;0.75;0.75;;;;;;;;;;5012454;28;20168;-58
2023/04/01 07:39:47;;;;;;;0.30;0.30;;;13.20;99.90;;;;;;5015534;28;20049;-55
2023/04/01 07:42:30;;;;;;;0.20;0.20;;;13.00;99.90;;;;;;5020612;28;20026;-52
2023/04/01 07:45:08;;;;;;;0.45;0.45;;;12.70;99.90;;;;;;5027530;28;20104;-55
2023/04/01 07:47:59;;;;;;;0.30;0.30;;;12.20;99.90;;;;;;5022293;28;20028;-52
2023/04/01 07:50:33;;;;;;;0.20;0.20;;;;;;;;;;5020329;28;20500;-55
2023/04/01 07:53:25;;;;;;;0.38;0.38;;;12.00;99.90;;;;;;5010408;28;20041;-56
2023/04/01 07:56:11;;;;;;;0.20;0.20;;;11.80;99.90;;;;;;5033889;28;20065;-54
2023/04/01 07:59:10;;;;;;;0.82;0.28;;;11.80;99.90;;;;;;5025129;28;20054;-56
2023/04/01 08:01:58;;;;;;;0.47;0.47;;;11.80;99.90;;;;;;5025350;28;20024;-54
2023/04/01 08:04:42;;;;;;;0.65;0.43;;;11.70;99.90;;;;;;5029528;28;20112;-53
2023/04/01 08:07:17;;;;;;;0.20;0.20;;;11.70;99.90;;;;;;5021425;28;20492;-56
2023/04/01 08:10:18;;;;;;;0.28;0.28;;;11.50;99.90;;;;;;5028528;28;20037;-51
2023/04/01 08:13:05;;;;;;;0.97;0.97;;;11.60;99.90;;;;;;5031103;28;20025;-57
2023/04/01 08:15:37;;;;;;;0.85;0.85;;;11.40;99.90;;;;;;5014184;28;20034;-52
2023/04/01 08:18:31;;;;;;;0.47;0.47;;;11.40;99.90;;;;;;5027038;28;20029;-53
2023/04/01 08:21:10;;;;;;;0.43;0.43;;;11.30;99.90;;;;;;5022709;28;20025;-58
2023/04/01 08:23:52;;;;;;;0.30;0.30;;;11.30;99.90;;;;;;5030001;28;20493;-57
2023/04/01 08:26:53;;;;;;;;;;;11.30;99.90;;;;;;5015461;28;20029;-55
2023/04/01 08:29:23;;;;;;;0.20;0.20;;;11.30;99.90;;;;;;5000876;28;19913;-55
2023/04/01 08:31:59;;;;;;;0.32;0.32;;;11.30;99.90;;;;;;5003153;28;20132;-59
2023/04/01 08:34:39;;;;;;;0.38;0.38;;;11.30;99.90;;;;;;4995628;28;20396;-54
2023/04/01 08:37:13;;;;;;;0.30;0.30;;;11.30;99.90;;;;;;4979608;28;20050;-56
2023/04/01 08:39:54;;;;;;;0.28;0.28;;;11.30;99.90;;;;;;4981299;28;20133;-51
2023/04/01 08:42:37;;;;;;;0.57;0.57;;;11.40;99.90;;;;;;4971479;28;20554;-62
2023/04/01 08:45:22;;;;;;;0.10;0.10;;;11.30;99.90;;;;;;4933461;28;20483;-56
2023/04/01 08:47:55;;;;;;;0.20;0.20;;;11.30;99.90;;;;;;4981193;28;20477;-60
2023/04/01 08:50:26;;;;;;;1.67;0.95;;;11.20;99.90;;;;;;4978352;28;20046;-71
2023/04/01 08:53:03;;;;;;;0.10;0.10;;;11.30;99.90;;;;;;4969122;28;20508;-58
2023/04/01 08:55:57;;;;;;;0.22;0.22;;;11.30;99.90;;;;;;4987085;28;20461;-57
2023/04/01 08:58:58;;;;;;;0.75;0.75;;;11.20;99.90;;;;;;4981201;28;20042;-51
2023/04/01 09:01:45;;;;;;;1.77;0.65;;;11.30;99.90;;;;;;4972863;28;20039;-54
2023/04/01 09:04:49;;;;;;;0.30;0.30;;;11.30;99.90;;;;;;5011833;28;20029;-51
2023/04/01 09:07:36;;;;;;;0.80;0.80;;;11.40;99.90;;;;;;5012364;28;20061;-56
2023/04/01 09:10:33;;;;;;;0.20;0.20;;;11.40;99.90;;;;;;5022435;28;20589;-56
2023/04/01 09:12:59;;;;;;;0.10;0.10;;;11.50;99.90;;;;;;5008383;28;20037;-51
2023/04/01 09:15:49;;;;;;;0.68;0.68;;;11.40;99.90;;;;;;5018836;28;20045;-50
2023/04/01 09:18:44;;;;;;;0.35;0.35;;;11.40;99.90;;;;;;5018540;28;20045;-52
2023/04/01 09:21:52;;;;;;;0.22;0.22;;;11.50;99.90;;;;;;5017750;28;20044;-49
2023/04/01 09:25:01;;;;;;;0.20;0.20;;;11.40;99.90;;;;;;5054569;28;20133;-48
2023/04/01 09:27:39;;;;;;;0.22;0.22;;;11.50;99.90;;;;;;5024292;28;20041;-50
2023/04/01 09:30:27;;;;;;;0.40;0.38;;;11.50;99.90;;;;;;5023930;28;20116;-50
2023/04/01 09:33:26;;;;;;;3.22;1.13;;;11.70;99.90;;;;;;5028816;28;20120;-50
2023/04/01 09:35:54;;;;;;;2.33;1.02;;;11.70;99.90;;;;;;5027344;28;20120;-49
2023/04/01 09:38:25;;;;;;;0.40;0.32;;;11.70;99.90;;;;;;5030366;28;20041;-47
2023/04/01 09:41:13;;;;;;;0.10;0.10;;;11.60;99.90;;;;;;5028197;28;21061;-49
2023/04/01 09:44:06;;;;;;;2.75;0.28;;;11.60;99.90;;;;;;5028115;28;20388;-51
2023/04/01 09:46:44;;;;;;;0.30;0.20;;;11.70;99.90;;;;;;5046208;28;20121;-48
2023/04/01 09:49:25;;;;;;;0.20;0.20;;;11.60;99.90;;;;;;5028311;28;20409;-49
2023/04/01 09:52:28;;;;;;;0.77;0.75;;;11.60;99.90;;;;;;5031058;28;20033;-48
2023/04/01 09:55:06;;;;;;;0.28;0.28;;;11.50;99.90;;;;;;5030122;28;20045;-48
2023/04/01 09:58:09;;;;;;;1.75;1.10;;;11.50;99.90;;;;;;5025704;28;20036;-47
2023/04/01 10:00:57;;;;;;;0.28;0.28;;;11.50;99.90;;;;;;5041706;28;20029;-50
2023/04/01 10:03:28;;;;;;;0.20;0.20;;;11.40;99.90;;;;;;5027832;28;20033;-48
2023/04/01 10:06:38;;;;;;;0.10;0.10;;;11.50;99.90;;;;;;5026858;28;20042;-48
2023/04/01 10:09:25;;;;;;;0.13;0.13;;;11.40;99.90;;;;;;4994944;28;20472;-51
2023/04/01 10:12:03;;;;;;;0.20;0.20;;;;;;;;;;5024352;28;20037;-50
2023/04/01 10:14:48;;;;;;;0.40;0.40;;;;;;;;;;5027721;28;20045;-50
2023/04/01 10:17:14;;;;;;;0.13;0.13;;;;;;;;;;5019132;28;20030;-48
2023/04/01 10:19:59;;;;;;;0.10;0.10;;;;;;;;;;5027308;28;20037;-49
2023/04/01 10:22:43;;;;;;;0.20;0.20;;;10.90;99.90;;;;;;5029856;28;20037;-49
2023/04/01 10:25:08;;;;;;;0.25;0.25;;;11.00;99.90;;;;;;5017726;28;20103;-50
2023/04/01 10:27:51;;;;;;;0.10;0.10;;;11.00;99.90;;;;;;5027137;28;20498;-50
2023/04/01 10:30:38;;;;;;;0.28;0.28;;;10.60;99.90;;;;;;5022821;28;20025;-49
2023/04/01 10:33:32;;;;;;;0.20;0.20;;;10.80;99.90;;;;;;5022704;28;20044;-50
2023/04/01 10:36:25;;;;;;;0.17;0.17;;;;;;;;;;5058434;28;20124;-47
2023/04/01 10:39:29;;;;;;;0.10;0.10;;;10.70;99.90;;;;;;5030770;28;20080;-48
2023/04/01 10:42:32;;;;;;;1.45;1.35;;;10.70;99.90;;;;;;5027683;28;20401;-49
2023/04/01 10:45:01;;;;;;;0.22;0.22;;;10.70;99.90;;;;;;5023365;28;20494;-51
2023/04/01 10:47:52;;;;;;;0.20;0.20;;;10.70;99.90;;;;;;5060467;28;20038;-50
2023/04/01 10:50:27;;;;;;;0.10;0.10;;;10.80;99.90;;;;;;5023572;28;20033;-51
2023/04/01 10:53:30;;;;;;;0.63;0.63;;;10.80;99.90;;;;;;5017362;28;20054;-48
2023/04/01 10:56:01;;;;;;;;;;;10.80;99.90;;;;;;5030570;28;20584;-48
2023/04/01 10:58:47;;;;;;;0.10;0.10;;;10.90;99.90;;;;;;5025421;28;20272;-49
2023/04/01 11:01:42;;;;;;;0.15;0.15;;;10.90;99.90;;;;;;5016115;28;20022;-51
2023/04/01 11:04:29;;;;;;;0.10;0.10;;;11.10;99.90;;;;;;5041943;28;20041;-51
2023/04/01 11:07:16;;;;;;;0.10;0.10;;;11.10;99.90;;;;;;5018336;28;20053;-50
2023/04/01 11:10:19;;;;;;;0.52;0.52;;;11.20;99.90;;;;;;5018278;28;20100;-51
2023/04/01 11:13:19;;;;;;;0.10;0.10;;;11.20;99.90;;;;;;5025500;28;20038;-53
2023/04/01 11:15:50;;;;;;;0.10;0.10;;;11.20;99.90;;;;;;5019614;28;20270;-48
2023/04/01 11:18:37;;;;;;;0.55;0.45;;;11.30;99.90;;;;;;5026842;28;20033;-53
2023/04/01 11:21:26;;;;;;;0.10;0.10;;;11.30;99.90;;;;;;5026649;28;20466;-54
2023/04/01 11:24:12;;;;;;;0.10;0.10;;;11.20;99.90;;;;;;5043008;28;20149;-53
2023/04/01 11:26:41;;;;;;;0.10;0.10;;;11.00;99.90;;;;;;5041698;28;20029;-50
2023/04/01 11:29:32;;;;;;;0.10;0.10;;;11.00;99.90;;;;;;5036279;28;20421;-53
2023/04/01 11:32:07;;;;;;;0.10;0.10;;;11.00;99.90;;;;;;5012687;28;20042;-51
2023/04/01 11:35:03;;;;;;;0.20;0.20;;;11.00;99.90;;;;;;5011876;28;20124;-48
2023/04/01 11:37:45;;;;;;;0.80;0.63;;;11.00;99.90;;;;;;5012343;28;20037;-51
2023/04/01 11:40:35;;;;;;;0.45;0.45;;;11.10;99.90;;;;;;5006447;28;20030;-52
2023/04/01 11:43:47;;;;;;;0.10;0.10;;;11.10;99.90;;;;;;4991577;28;20183;-49
2023/04/01 11:46:19;;;;;;;;;;;11.10;99.90;;;;;;4999802;28;20474;-51
2023/04/01 11:48:56;;;;;;;0.45;0.45;;;11.10;99.90;;;;;;4998163;28;19932;-51
2023/04/01 11:51:48;;;;;;;0.10;0.10;;;11.10;99.90;;;;;;5010248;28;20088;-51
2023/04/01 11:54:35;;;;;;;0.30;0.30;;;11.20;99.90;;;;;;5009973;28;20129;-54
2023/04/01 11:57:16;;;;;;;0.20;0.20;;;11.20;99.90;;;;;;5007735;28;20037;-50
2023/04/01 11:59:57;;;;;;;0.15;0.15;;;11.10;99.90;;;;;;4991218;28;20461;-51
2023/04/01 12:02:22;;;;;;;0.15;0.15;;;11.30;99.90;;;;;;4969868;28;20392;-50
2023/04/01 12:05:12;;;;;;;0.32;0.22;;;11.20;99.90;;;;;;4973030;28;20058;-55
2023/04/01 12:08:24;;;;;;;0.10;0.10;;;11.20;99.90;;;;;;4965958;28;20039;-52
2023/04/01 12:11:04;;;;;;;0.10;0.10;;;11.20;99.90;;;;;;4933813;28;20461;-50
2023/04/01 12:13:40;;;;;;;0.10;0.10;;;11.30;99.90;;;;;;4927530;29;20135;-50
2023/04/01 12:16:24;;;;;;;0.30;0.30;;;11.30;99.90;;;;;;4945717;28;20554;-50
2023/04/01 12:19:23;;;;;;;0.30;0.30;;;11.40;99.90;;;;;;5023794;28;20103;-49
2023/04/01 12:21:55;;;;;;;0.35;0.28;;;11.40;99.90;;;;;;5030486;28;20123;-50
2023/04/01 12:24:27;;;;;;;;;;;11.50;99.90;;;;;;5030371;28;20041;-49
2023/04/01 12:27:23;;;;;;;0.40;0.40;;;11.50;99.90;;;;;;5028089;28;19909;-49
2023/04/01 12:30:13;;;;;;;0.13;0.13;;;11.50;99.90;;;;;;5023262;28;20120;-50
2023/04/01 12:33:00;;;;;;;0.13;0.13;;;11.40;99.90;;;;;;5025113;28;20048;-50
2023/04/01 12:35:45;;;;;;;0.32;0.32;;;11.40;99.90;;;;;;5018900;28;20037;-49
2023/04/01 12:38:48;;;;;;;0.20;0.20;;;11.30;99.90;;;;;;5044385;28;20099;-50
2023/04/01 12:41:46;;;;;;;1.83;0.75;;;11.30;99.90;;;;;;5014914;28;20034;-49
2023/04/01 12:44:47;;;;;;;0.30;0.30;;;11.40;99.90;;;;;;5022877;28;20018;-49
2023/04/01 12:47:56;;;;;;;0.38;0.38;;;11.40;99.90;;;;;;5041064;28;20052;-48
2023/04/01 12:50:46;;;;;;;0.40;0.40;;;11.40;99.90;;;;;;5038306;28;20057;-50
2023/04/01 12:53:24;;;;;;;0.20;0.20;;;11.50;99.90;;;;;;5033255;28;20060;-51
2023/04/01 12:55:52;;;;;;;0.10;0.10;;;11.50;99.90;;;;;;5043468;28;20496;-49
2023/04/01 12:58:39;;;;;;;0.35;0.35;;;11.50;99.90;;;;;;5043740;28;20053;-50
2023/04/01 13:01:22;;;;;;;0.60;0.40;;;11.40;99.90;;;;;;5037421;28;20031;-49
2023/04/01 13:04:04;;;;;;;0.17;0.17;;;11.40;99.90;;;;;;5041137;28;20066;-48
2023/04/01 13:06:49;;;;;;;2.35;0.45;;;11.50;99.90;;;;;;5042783;28;20112;-50
2023/04/01 13:09:39;;;;;;;0.30;0.30;;;11.40;99.90;;;;;;5037689;28;20058;-48
2023/04/01 13:12:23;;;;;;;0.10;0.10;;;11.40;99.90;;;;;;5030180;28;20049;-49
2023/04/01 13:15:23;;;;;;;0.20;0.20;;;11.40;99.90;;;;;;5032296;28;20501;-51
2023/04/01 13:18:07;;;;;;;0.17;0.17;;;11.50;99.90;;;;;;5036074;28;20067;-49
2023/04/01 13:20:33;;;;;;;0.35;0.35;;;11.40;99.90;;;;;;5043154;28;20033;-48
2023/04/01 13:23:38;;;;;;;0.25;0.25;;;11.50;99.90;;;;;;5039020;28;20041;-48
2023/04/01 13:26:22;;;;;;;0.20;0.20;;;11.50;99.90;;;;;;5007039;28;20018;-49
2023/04/01 13:29:05;;;;;;;0.68;0.40;;;11.60;99.90;;;;;;5023069;28;20029;-50
2023/04/01 13:31:51;;;;;;;1.00;1.00;;;11.60;99.90;;;;;;5026546;28;20035;-49
2023/04/01 13:34:55;;;;;;;0.45;0.45;;;11.70;99.90;;;;;;5021606;28;20021;-50
2023/04/01 13:37:43;;;;;;;1.05;0.95;;;11.80;99.90;;;;;;5014769;28;20040;-53
2023/04/01 13:40:37;;;;;;;0.50;0.50;;;11.90;99.90;;;;;;5008444;28;20037;-50
2023/04/01 13:43:20;;;;;;;0.20;0.20;;;12.00;99.90;;;;;;5015899;28;20107;-51